Time;durP1;ratioP1;P1;durP2;ratioP2;P2;SDS_P1;SDS_P2;PMS_P1;PMS_P2;Temp;Humidity;BMP_temperature;BMP_pressure;BME280_temperature;BME280_humidity;BME280_pressure;Samples;Min_cycle;Max_cycle;Signal;HPM_P1;HPM_P2
2021/05/07 00:01:26;;;;;;;;;;;6.50;99.90;;;;;;4989210;28;19973;-75
2021/05/07 00:03:52;;;;;;;;;;;6.50;99.90;;;;;;4989117;28;19961;-75
2021/05/07 00:06:17;;;;;;;;;;;6.60;99.90;;;;;;4988914;28;19976;-75
2021/05/07 00:08:43;;;;;;;;;;;6.50;99.90;;;;;;4987584;28;20083;-75
2021/05/07 00:11:12;;;;;;;;;;;6.50;99.90;;;;;;4988652;28;20378;-75
2021/05/07 00:13:38;;;;;;;;;;;6.60;99.90;;;;;;4988918;28;20461;-74
2021/05/07 00:16:04;;;;;;;;;;;6.60;99.90;;;;;;4989039;28;19949;-74
2021/05/07 00:18:30;;;;;;;;;;;6.60;99.90;;;;;;4988888;28;20032;-74
2021/05/07 00:20:56;;;;;;;;;;;6.60;99.90;;;;;;4987621;28;20370;-74
2021/05/07 00:23:22;;;;;;;;;;;6.50;99.90;;;;;;4987813;28;20020;-74
2021/05/07 00:25:50;;;;;;;;;;;6.40;99.90;;;;;;4989022;28;20042;-73
2021/05/07 00:28:17;;;;;;;;;;;6.40;99.90;;;;;;4988835;28;19930;-74
2021/05/07 00:30:43;;;;;;;;;;;6.40;99.90;;;;;;4988828;28;20017;-73
2021/05/07 00:33:09;;;;;;;;;;;6.40;99.90;;;;;;4988883;28;20064;-73
2021/05/07 00:35:35;;;;;;;;;;;6.30;99.90;;;;;;4988861;28;20086;-73
2021/05/07 00:38:02;;;;;;;;;;;6.30;99.90;;;;;;4988594;28;19949;-73
2021/05/07 00:40:28;;;;;;;;;;;6.30;99.90;;;;;;4988480;28;20381;-73
2021/05/07 00:42:54;;;;;;;;;;;6.30;99.90;;;;;;4988594;28;19936;-73
2021/05/07 00:45:23;;;;;;;;;;;6.30;99.90;;;;;;4989933;28;19929;-73
2021/05/07 00:47:57;;;;;;;;;;;6.30;99.90;;;;;;4991326;28;19936;-73
2021/05/07 00:50:25;;;;;;;;;;;6.30;99.90;;;;;;4992367;28;20463;-73
2021/05/07 00:52:53;;;;;;;;;;;6.30;99.90;;;;;;4992182;28;20389;-73
2021/05/07 00:55:19;;;;;;;;;;;6.30;99.90;;;;;;4992099;28;20020;-73
2021/05/07 00:57:45;;;;;;;;;;;6.30;99.90;;;;;;4999038;28;20021;-73
2021/05/07 01:00:11;;;;;;;;;;;6.30;99.90;;;;;;4990742;28;20019;-73
2021/05/07 01:02:38;;;;;;;;;;;6.30;99.90;;;;;;4990811;28;19930;-73
2021/05/07 01:05:06;;;;;;;;;;;6.30;99.90;;;;;;4991039;28;19973;-73
2021/05/07 01:07:32;;;;;;;;;;;6.30;99.90;;;;;;4992192;28;19930;-73
2021/05/07 01:10:00;;;;;;;;;;;6.30;99.90;;;;;;4991999;28;19940;-73
2021/05/07 01:12:29;;;;;;;;;;;6.30;99.90;;;;;;4990617;28;19984;-72
2021/05/07 01:15:00;;;;;;;;;;;6.30;99.90;;;;;;4974631;28;20020;-73
2021/05/07 01:17:27;;;;;;;;;;;6.40;99.90;;;;;;4990536;28;20428;-73
2021/05/07 01:19:53;;;;;;;;;;;6.50;99.90;;;;;;4991900;28;20036;-73
2021/05/07 01:22:19;;;;;;;;;;;6.60;99.90;;;;;;4991548;28;19965;-73
2021/05/07 01:24:45;;;;;;;;;;;6.70;99.90;;;;;;4992005;28;20457;-73
2021/05/07 01:27:11;;;;;;;;;;;6.70;99.90;;;;;;4991693;28;19929;-72
2021/05/07 01:29:39;;;;;;;;;;;6.90;99.90;;;;;;4990043;28;19937;-73
2021/05/07 01:32:04;;;;;;;;;;;7.00;99.90;;;;;;4991672;28;20416;-73
2021/05/07 01:34:30;;;;;;;;;;;7.00;99.90;;;;;;4990300;28;20465;-73
2021/05/07 01:36:56;;;;;;;;;;;7.10;99.90;;;;;;4991355;28;20017;-72
2021/05/07 01:39:23;;;;;;;;;;;7.10;99.90;;;;;;4991463;28;19929;-73
2021/05/07 01:41:48;;;;;;;;;;;7.20;99.90;;;;;;4990066;28;20337;-73
2021/05/07 01:44:15;;;;;;;;;;;7.30;99.90;;;;;;4990356;28;19936;-73
2021/05/07 01:46:40;;;;;;;;;;;7.40;99.90;;;;;;4989819;28;20367;-74
2021/05/07 01:49:07;;;;;;;;;;;7.40;99.90;;;;;;4990496;28;19972;-73
2021/05/07 01:51:33;;;;;;;;;;;7.50;99.90;;;;;;4990577;28;20069;-74
2021/05/07 01:54:01;;;;;;;;;;;7.50;99.90;;;;;;4984678;28;20024;-74
2021/05/07 01:56:27;;;;;;;;;;;7.40;99.90;;;;;;4985703;28;20137;-73
2021/05/07 01:58:53;;;;;;;;;;;7.50;99.90;;;;;;4989844;28;20091;-74
2021/05/07 02:01:19;;;;;;;;;;;7.50;99.90;;;;;;4991357;28;19942;-74
2021/05/07 02:03:48;;;;;;;;;;;7.40;99.90;;;;;;4990883;28;19934;-74
2021/05/07 02:06:20;;;;;;;;;;;7.40;99.90;;;;;;4974017;28;19945;-74
2021/05/07 02:08:48;;;;;;;;;;;7.50;99.90;;;;;;4973435;28;19930;-74
2021/05/07 02:11:14;;;;;;;;;;;7.60;99.90;;;;;;4990957;28;20378;-74
2021/05/07 02:13:40;;;;;;;;;;;7.60;99.90;;;;;;4989749;28;20016;-74
2021/05/07 02:16:07;;;;;;;;;;;7.60;99.90;;;;;;4991011;28;20409;-74
2021/05/07 02:18:33;;;;;;;;;;;7.60;99.90;;;;;;4990626;28;20065;-74
2021/05/07 02:21:05;;;;;;;;;;;7.70;99.90;;;;;;4989955;28;20420;-74
2021/05/07 02:23:34;;;;;;;;;;;7.70;99.90;;;;;;4990682;28;19972;-74
2021/05/07 02:26:00;;;;;;;;;;;7.60;99.90;;;;;;4989416;28;19988;-75
2021/05/07 02:28:32;;;;;;;;;;;7.60;99.90;;;;;;4990474;28;20417;-74
2021/05/07 02:30:58;;;;;;;;;;;7.60;99.90;;;;;;4990806;28;19930;-74
2021/05/07 02:33:25;;;;;;;;;;;7.60;99.90;;;;;;4990425;28;20021;-74
2021/05/07 02:35:51;;;;;;;;;;;7.70;99.90;;;;;;4989089;28;20028;-75
2021/05/07 02:38:18;;;;;;;;;;;7.70;99.90;;;;;;4990572;28;20358;-74
2021/05/07 02:40:44;;;;;;;;;;;7.70;99.90;;;;;;4989072;28;19930;-74
2021/05/07 02:43:10;;;;;;;;;;;7.70;99.90;;;;;;4990391;28;20408;-74
2021/05/07 02:45:38;;;;;;;;;;;7.70;99.90;;;;;;4989148;28;19936;-74
2021/05/07 02:48:04;;;;;;;;;;;7.70;99.90;;;;;;4990250;28;19929;-74
2021/05/07 02:50:30;;;;;;;;;;;7.80;99.90;;;;;;4989134;28;19929;-74
2021/05/07 02:52:56;;;;;;;;;;;7.80;99.90;;;;;;4989019;28;20369;-74
2021/05/07 02:55:22;;;;;;;;;;;7.80;99.90;;;;;;4996390;28;19949;-74
2021/05/07 02:57:49;;;;;;;;;;;7.80;99.90;;;;;;4994090;28;19961;-74
2021/05/07 03:00:17;;;;;;;;;;;7.80;99.90;;;;;;4986668;28;19932;-74
2021/05/07 03:02:43;;;;;;;;;;;7.70;99.90;;;;;;4989734;28;19984;-74
2021/05/07 03:05:09;;;;;;;;;;;7.70;99.90;;;;;;4990123;28;19969;-74
2021/05/07 03:07:35;;;;;;;;;;;7.60;99.90;;;;;;4989266;28;20013;-73
2021/05/07 03:10:01;;;;;;;;;;;7.60;99.90;;;;;;4987588;28;20024;-74
2021/05/07 03:12:27;;;;;;;;;;;7.60;99.90;;;;;;4985618;28;19980;-74
2021/05/07 03:14:52;;;;;;;;;;;7.60;99.90;;;;;;4990090;28;19961;-74
2021/05/07 03:17:19;;;;;;;;;;;7.70;99.90;;;;;;4989307;28;20024;-74
2021/05/07 03:19:45;;;;;;;;;;;7.60;99.90;;;;;;4988426;28;19960;-74
2021/05/07 03:22:11;;;;;;;;;;;7.60;99.90;;;;;;4989392;28;19934;-74
2021/05/07 03:24:36;;;;;;;;;;;7.60;99.90;;;;;;4989742;28;20049;-75
2021/05/07 03:27:03;;;;;;;;;;;7.60;99.90;;;;;;4972056;28;20025;-75
2021/05/07 03:29:29;;;;;;;;;;;7.50;99.90;;;;;;4989504;28;19968;-75
2021/05/07 03:31:55;;;;;;;;;;;7.50;99.90;;;;;;4989408;28;20560;-75
2021/05/07 03:34:20;;;;;;;;;;;7.40;99.90;;;;;;4989344;28;20024;-75
2021/05/07 03:36:46;;;;;;;;;;;7.40;99.90;;;;;;4989290;28;19933;-75
2021/05/07 03:39:12;;;;;;;;;;;7.40;99.90;;;;;;4989552;28;19972;-75
2021/05/07 03:41:38;;;;;;;;;;;7.40;99.90;;;;;;4989000;28;20416;-74
2021/05/07 03:44:04;;;;;;;;;;;7.30;99.90;;;;;;4989536;28;19964;-75
2021/05/07 03:46:30;;;;;;;;;;;7.40;99.90;;;;;;4988278;28;19930;-75
2021/05/07 03:48:56;;;;;;;;;;;7.40;99.90;;;;;;4988054;28;20320;-75
2021/05/07 03:51:23;;;;;;;;;;;7.30;99.90;;;;;;4987855;28;19930;-76
2021/05/07 03:53:48;;;;;;;;;;;7.30;99.90;;;;;;4989016;28;19937;-76
2021/05/07 03:56:14;;;;;;;;;;;7.30;99.90;;;;;;5000075;28;20016;-76
2021/05/07 03:58:40;;;;;;;;;;;7.30;99.90;;;;;;4989373;28;20020;-75
2021/05/07 04:01:08;;;;;;;;;;;7.30;99.90;;;;;;4988034;28;20024;-77
2021/05/07 04:03:34;;;;;;;;;;;7.40;99.90;;;;;;4989441;28;19933;-76
2021/05/07 04:06:00;;;;;;;;;;;7.40;99.90;;;;;;4989005;28;20401;-76
2021/05/07 04:08:30;;;;;;;;;;;7.40;99.90;;;;;;4987744;28;20619;-76
2021/05/07 04:11:04;;;;;;;;;;;7.30;99.90;;;;;;4982113;28;19983;-76
2021/05/07 04:13:38;;;;;;;;;;;7.30;99.90;;;;;;4971697;28;20727;-76
2021/05/07 04:16:05;;;;;;;;;;;7.30;99.90;;;;;;4989000;28;20064;-75
2021/05/07 04:18:32;;;;;;;;;;;7.30;99.90;;;;;;4987790;28;20333;-75
2021/05/07 04:20:58;;;;;;;;;;;7.40;99.90;;;;;;4992180;28;20447;-76
2021/05/07 04:23:24;;;;;;;;;;;7.40;99.90;;;;;;4992986;28;20028;-76
2021/05/07 04:25:55;;;;;;;;;;;7.40;99.90;;;;;;4992812;28;20045;-75
2021/05/07 04:28:21;;;;;;;;;;;7.50;99.90;;;;;;4992773;28;19977;-76
2021/05/07 04:30:48;;;;;;;;;;;7.50;99.90;;;;;;4992438;28;20018;-75
2021/05/07 04:33:14;;;;;;;;;;;7.50;99.90;;;;;;4991745;28;19976;-75
2021/05/07 04:35:40;;;;;;;;;;;7.50;99.90;;;;;;4992590;28;19933;-76
2021/05/07 04:38:06;;;;;;;;;;;7.50;99.90;;;;;;4991876;28;19976;-76
2021/05/07 04:40:38;;;;;;;;;;;7.50;99.90;;;;;;4992954;28;20032;-75
2021/05/07 04:43:05;;;;;;;;;;;7.60;99.90;;;;;;4992494;28;20064;-75
2021/05/07 04:45:31;;;;;;;;;;;7.60;99.90;;;;;;4992484;28;20009;-76
2021/05/07 04:47:57;;;;;;;;;;;7.70;99.90;;;;;;4992416;28;19930;-76
2021/05/07 04:50:24;;;;;;;;;;;7.60;99.90;;;;;;4990805;28;20489;-76
2021/05/07 04:52:50;;;;;;;;;;;7.60;99.90;;;;;;4992253;28;19929;-75
2021/05/07 04:55:16;;;;;;;;;;;7.60;99.90;;;;;;5002872;28;20019;-75
2021/05/07 04:57:42;;;;;;;;;;;7.60;99.90;;;;;;4996261;28;20368;-74
2021/05/07 05:00:09;;;;;;;;;;;7.70;99.90;;;;;;4991920;28;19937;-74
2021/05/07 05:02:35;;;;;;;;;;;7.70;99.90;;;;;;4990751;28;19933;-74
2021/05/07 05:05:04;;;;;;;;;;;7.70;99.90;;;;;;4990801;28;20033;-74
2021/05/07 05:07:30;;;;;;;;;;;7.70;99.90;;;;;;4999156;28;19934;-74
2021/05/07 05:09:56;;;;;;;;;;;7.70;99.90;;;;;;4964180;28;20358;-72
2021/05/07 05:12:22;;;;;;;;;;;7.70;99.90;;;;;;4990706;28;19972;-74
2021/05/07 05:14:48;;;;;;;;;;;7.70;99.90;;;;;;4979825;28;20472;-72
2021/05/07 05:17:17;;;;;;;;;;;7.60;99.90;;;;;;4990851;28;19955;-70
2021/05/07 05:19:50;;;;;;;;;;;7.60;99.90;;;;;;4989934;28;20309;-71
2021/05/07 05:22:16;;;;;;;;;;;7.60;99.90;;;;;;4991230;28;19975;-68
2021/05/07 05:24:43;;;;;;;;;;;7.60;99.90;;;;;;4991650;28;20352;-67
2021/05/07 05:27:09;;;;;;;;;;;7.60;99.90;;;;;;4991697;28;19981;-69
2021/05/07 05:29:35;;;;;;;;;;;7.60;99.90;;;;;;4991907;28;19981;-69
2021/05/07 05:32:01;;;;;;;;;;;7.60;99.90;;;;;;4990666;28;19926;-73
2021/05/07 05:34:27;;;;;;;;;;;7.60;99.90;;;;;;4991871;28;20180;-67
2021/05/07 05:36:53;;;;;;;;;;;7.60;99.90;;;;;;4991543;28;19930;-68
2021/05/07 05:39:19;;;;;;;;;;;7.60;99.90;;;;;;4991728;28;19957;-66
2021/05/07 05:41:45;;;;;;;;;;;7.60;99.90;;;;;;4984224;28;19979;-69
2021/05/07 05:44:11;;;;;;;;;;;7.60;99.90;;;;;;4988939;28;19929;-67
2021/05/07 05:46:37;;;;;;;;;;;7.60;99.90;;;;;;4989908;28;19930;-68
2021/05/07 05:49:04;;;;;;;;;;;7.60;99.90;;;;;;4989388;28;19936;-69
2021/05/07 05:51:30;;;;;;;;;;;7.60;99.90;;;;;;4987650;28;20416;-69
2021/05/07 05:53:56;;;;;;;;;;;7.60;99.90;;;;;;4988517;28;19930;-66
2021/05/07 05:56:21;;;;;;;;;;;7.60;99.90;;;;;;5001544;28;19953;-64
2021/05/07 05:58:47;;;;;;;;;;;7.60;99.90;;;;;;4990071;28;19965;-63
2021/05/07 06:01:13;;;;;;;;;;;7.60;99.90;;;;;;4989381;28;19936;-64
2021/05/07 06:03:39;;;;;;;;;;;7.60;99.90;;;;;;4989483;28;19929;-65
2021/05/07 06:06:05;;;;;;;;;;;7.70;99.90;;;;;;4989352;28;19965;-65
2021/05/07 06:08:31;;;;;;;;;;;7.70;99.90;;;;;;4989331;28;20391;-65
2021/05/07 06:10:57;;;;;;;;;;;7.70;99.90;;;;;;4988600;28;20259;-67
2021/05/07 06:13:23;;;;;;;;;;;7.80;99.90;;;;;;4989474;28;19930;-66
2021/05/07 06:15:48;;;;;;;;;;;7.80;99.90;;;;;;4990541;28;19929;-67
2021/05/07 06:18:16;;;;;;;;;;;7.80;99.90;;;;;;4990535;28;20016;-67
2021/05/07 06:20:42;;;;;;;;;;;7.80;99.90;;;;;;4990595;28;20040;-67
2021/05/07 06:23:08;;;;;;;;;;;7.90;99.90;;;;;;4990692;28;19925;-67
2021/05/07 06:25:34;;;;;;;;;;;7.90;99.90;;;;;;4988359;28;19930;-67
2021/05/07 06:28:00;;;;;;;;;;;7.90;99.90;;;;;;4989638;28;19930;-66
2021/05/07 06:30:27;;;;;;;;;;;7.90;99.90;;;;;;4990654;28;19929;-66
2021/05/07 06:32:53;;;;;;;;;;;7.90;99.90;;;;;;4990738;28;20407;-66
2021/05/07 06:35:19;;;;;;;;;;;8.00;99.90;;;;;;4989885;28;20024;-66
2021/05/07 06:37:45;;;;;;;;;;;8.00;99.90;;;;;;4989234;28;19926;-72
2021/05/07 06:40:11;;;;;;;;;;;8.00;99.90;;;;;;4988171;28;20021;-74
2021/05/07 06:42:48;;;;;;;;;;;8.00;99.90;;;;;;4958136;28;19936;-69
2021/05/07 06:45:15;;;;;;;;;;;7.90;99.90;;;;;;4988724;28;19940;-70
2021/05/07 06:47:49;;;;;;;;;;;7.90;99.90;;;;;;4989264;28;20105;-69
2021/05/07 06:50:18;;;;;;;;;;;8.00;99.90;;;;;;4971804;28;20200;-69
2021/05/07 06:52:44;;;;;;;;;;;8.00;99.90;;;;;;4988756;28;20012;-69
2021/05/07 06:55:11;;;;;;;;;;;8.00;99.90;;;;;;4999148;28;20060;-71
2021/05/07 06:57:38;;;;;;;;;;;8.00;99.90;;;;;;4995595;28;20008;-71
2021/05/07 07:00:05;;;;;;;;;;;8.00;99.90;;;;;;4989582;28;19942;-71
2021/05/07 07:02:31;;;;;;;;;;;7.90;99.90;;;;;;4989183;28;19969;-69
2021/05/07 07:04:57;;;;;;;;;;;7.90;99.90;;;;;;4988805;28;19937;-69
2021/05/07 07:07:25;;;;;;;;;;;7.90;99.90;;;;;;4989468;28;19977;-71
2021/05/07 07:09:51;;;;;;;;;;;7.90;99.90;;;;;;4988768;28;20317;-74
2021/05/07 07:12:17;;;;;;;;;;;7.90;99.90;;;;;;4984028;28;19929;-73
2021/05/07 07:14:43;;;;;;;;;;;8.00;99.90;;;;;;4988361;28;20015;-68
2021/05/07 07:17:09;;;;;;;;;;;8.00;99.90;;;;;;4989100;28;20009;-73
2021/05/07 07:19:35;;;;;;;;;;;8.00;99.90;;;;;;4989580;28;20374;-71
2021/05/07 07:22:02;;;;;;;;;;;8.10;99.90;;;;;;4987901;28;20453;-72
2021/05/07 07:24:28;;;;;;;;;;;8.20;99.90;;;;;;4989169;28;19929;-70
2021/05/07 07:26:58;;;;;;;;;;;8.20;99.90;;;;;;4989442;28;20423;-69
2021/05/07 07:29:24;;;;;;;;;;;8.30;99.90;;;;;;4989374;28;19969;-65
2021/05/07 07:31:51;;;;;;;;;;;8.30;99.90;;;;;;4987747;28;20016;-77
2021/05/07 07:34:18;;;;;;;;;;;8.40;99.90;;;;;;4987756;28;19980;-74
2021/05/07 07:36:45;;;;;;;;;;;8.40;99.90;;;;;;4970758;28;20028;-73
2021/05/07 07:39:12;;;;;;;;;;;8.50;99.90;;;;;;4989115;28;20405;-71
2021/05/07 07:41:38;;;;;;;;;;;8.60;99.90;;;;;;4987605;28;20098;-71
2021/05/07 07:44:04;;;;;;;;;;;8.60;99.90;;;;;;4988037;28;20492;-73
2021/05/07 07:46:30;;;;;;;;;;;8.70;99.90;;;;;;4987211;28;19979;-68
2021/05/07 07:48:56;;;;;;;;;;;8.80;99.90;;;;;;4988835;28;20470;-68
2021/05/07 07:51:22;;;;;;;;;;;8.90;99.90;;;;;;4988425;28;19941;-68
2021/05/07 07:53:48;;;;;;;;;;;8.90;99.90;;;;;;4986627;28;20029;-68
2021/05/07 07:56:14;;;;;;;;;;;9.00;99.90;;;;;;4975256;28;20313;-68
2021/05/07 07:58:40;;;;;;;;;;;9.00;99.90;;;;;;4987712;28;20370;-67
2021/05/07 08:01:06;;;;;;;;;;;9.10;99.90;;;;;;4988838;28;20350;-67
2021/05/07 08:03:32;;;;;;;;;;;9.10;99.90;;;;;;4988668;28;20365;-67
2021/05/07 08:05:58;;;;;;;;;;;9.30;99.90;;;;;;4987650;28;19929;-68
2021/05/07 08:08:24;;;;;;;;;;;9.40;99.90;;;;;;4987291;28;19985;-71
2021/05/07 08:10:50;;;;;;;;;;;9.50;99.90;;;;;;4980727;28;20026;-68
2021/05/07 08:13:16;;;;;;;;;;;9.50;99.90;;;;;;4987409;28;20012;-69
2021/05/07 08:15:42;;;;;;;;;;;9.60;99.90;;;;;;4988706;28;20301;-68
2021/05/07 08:18:08;;;;;;;;;;;9.80;99.90;;;;;;4987299;28;20376;-69
2021/05/07 08:20:34;;;;;;;;;;;10.00;99.90;;;;;;4988749;28;20364;-71
2021/05/07 08:23:01;;;;;;;;;;;10.00;99.90;;;;;;4976421;28;20017;-71
2021/05/07 08:25:27;;;;;;;;;;;10.00;99.90;;;;;;4988502;28;19959;-71
2021/05/07 08:27:53;;;;;;;;;;;10.00;99.90;;;;;;4975884;28;20357;-71
2021/05/07 08:30:19;;;;;;;;;;;10.00;99.90;;;;;;4988568;28;19926;-71
2021/05/07 08:32:44;;;;;;;;;;;9.90;99.90;;;;;;4998338;28;19961;-71
2021/05/07 08:35:11;;;;;;;;;;;9.90;99.90;;;;;;4988313;28;20037;-71
2021/05/07 08:37:44;;;;;;;;;;;9.90;99.90;;;;;;4987218;28;20385;-71
2021/05/07 08:40:11;;;;;;;;;;;9.80;99.90;;;;;;4988394;28;20013;-71
2021/05/07 08:42:37;;;;;;;;;;;9.70;99.90;;;;;;4987287;28;19930;-68
2021/05/07 08:45:03;;;;;;;;;;;9.70;99.90;;;;;;4988498;28;20313;-69
2021/05/07 08:47:32;;;;;;;;;;;9.80;99.90;;;;;;4988223;28;19957;-69
2021/05/07 08:50:00;;;;;;;;;;;10.00;99.90;;;;;;4988264;28;20338;-68
2021/05/07 08:52:26;;;;;;;;;;;10.10;99.90;;;;;;4986662;28;19926;-68
2021/05/07 08:54:55;;;;;;;;;;;10.20;99.90;;;;;;4990529;28;20021;-70
2021/05/07 08:57:22;;;;;;;;;;;10.40;99.90;;;;;;4996483;28;19930;-70
2021/05/07 08:59:48;;;;;;;;;;;10.40;99.90;;;;;;4988084;28;20033;-70
2021/05/07 09:02:27;;;;;;;;;;;10.60;99.90;;;;;;4986767;28;20032;-68
2021/05/07 09:04:55;;;;;;;;;;;10.90;99.90;;;;;;4987259;28;19978;-69
2021/05/07 09:07:22;;;;;;;;;;;11.30;99.90;;;;;;4991740;28;20028;-69
2021/05/07 09:09:49;;;;;;;;;;;11.70;99.90;;;;;;4991711;28;20013;-69
2021/05/07 09:12:38;;;;;;;;;;;11.80;99.90;;;;;;4986181;28;19929;-69
2021/05/07 09:15:05;;;;;;;;;;;11.90;99.90;;;;;;4992013;28;20435;-68
2021/05/07 09:17:33;;;;;;;;;;;12.00;99.90;;;;;;4991564;28;19936;-67
2021/05/07 09:20:12;;;;;;;;;;;12.20;99.90;;;;;;4991592;28;20013;-67
2021/05/07 09:22:39;;;;;;;;;;;12.30;99.90;;;;;;4991520;28;19987;-68
2021/05/07 09:25:15;;;;;;;;;;;12.40;99.90;;;;;;4993559;28;20067;-69
2021/05/07 09:27:42;;;;;;;;;;;12.40;99.90;;;;;;4990341;28;20394;-75
2021/05/07 09:30:20;;;;;;;;;;;12.40;99.90;;;;;;4974014;28;20005;-71
2021/05/07 09:32:49;;;;;;;;;;;12.50;99.90;;;;;;4980957;28;20028;-72
2021/05/07 09:35:16;;;;;;;;;;;12.80;99.90;;;;;;4991439;28;19976;-71
2021/05/07 09:37:44;;;;;;;;;;;13.30;99.90;;;;;;4982875;28;19941;-71
2021/05/07 09:40:16;;;;;;;;;;;13.60;99.90;;;;;;4990489;28;19962;-71
2021/05/07 09:42:42;;;;;;;;;;;14.10;99.90;;;;;;4991307;28;19930;-71
2021/05/07 09:45:18;;;;;;;;;;;15.00;99.90;;;;;;4991582;28;19946;-73
2021/05/07 09:47:47;;;;;;;;;;;16.10;99.60;;;;;;4983955;28;19929;-71
2021/05/07 09:50:13;;;;;;;;;;;16.90;97.80;;;;;;4995931;28;20357;-74
2021/05/07 09:52:39;;;;;;;;;;;16.90;96.30;;;;;;4996794;28;20024;-74
2021/05/07 09:55:07;;;;;;;;;;;17.20;93.30;;;;;;4998667;28;19972;-72
2021/05/07 09:57:34;;;;;;;;;;;17.40;93.20;;;;;;4999526;28;20028;-71
2021/05/07 10:00:01;;;;;;;;;;;17.50;91.70;;;;;;4992752;28;19965;-72
2021/05/07 10:02:26;;;;;;;;;;;17.70;89.20;;;;;;4992980;28;19930;-70
2021/05/07 10:04:53;;;;;;;;;;;17.80;89.90;;;;;;4991718;28;19996;-70
2021/05/07 10:07:19;;;;;;;;;;;17.90;89.80;;;;;;4992178;28;19926;-70
2021/05/07 10:09:45;;;;;;;;;;;18.20;90.00;;;;;;4993708;28;19937;-70
2021/05/07 10:12:14;;;;;;;;;;;18.50;87.30;;;;;;4985069;28;19930;-71
2021/05/07 10:14:42;;;;;;;;;;;19.00;88.10;;;;;;4990940;28;19979;-71
2021/05/07 10:17:11;;;;;;;;;;;19.30;85.90;;;;;;4991351;28;19929;-71
2021/05/07 10:19:41;;;;;;;;;;;19.60;82.20;;;;;;4991541;28;19929;-70
2021/05/07 10:22:09;;;;;;;;;;;19.50;81.40;;;;;;4996402;28;19936;-72
2021/05/07 10:24:36;;;;;;;;;;;19.50;77.40;;;;;;4993199;28;20291;-73
2021/05/07 10:27:12;;;;;;;;;;;19.60;76.20;;;;;;4979851;28;20725;-71
2021/05/07 10:29:39;;;;;;;;;;;19.80;75.70;;;;;;4991964;28;20005;-71
2021/05/07 10:32:04;;;;;;;;;;;20.10;74.10;;;;;;4993257;28;20379;-73
2021/05/07 10:34:40;;;;;;;;;;;20.40;71.80;;;;;;4992095;28;20025;-72
2021/05/07 10:37:13;;;;;;;;;;;20.60;74.10;;;;;;4990456;28;19933;-70
2021/05/07 10:39:52;;;;;;;;;;;20.90;70.30;;;;;;4989200;28;19961;-65
2021/05/07 10:42:18;;;;;;;;;;;21.00;69.60;;;;;;4993939;28;19933;-67
2021/05/07 10:44:44;;;;;;;;;;;21.30;65.10;;;;;;4994618;28;19969;-68
2021/05/07 10:47:10;;;;;;;;;;;21.50;68.60;;;;;;4992270;28;20027;-68
2021/05/07 10:49:40;;;;;;;;;;;21.40;61.40;;;;;;4991653;28;19965;-67
2021/05/07 10:52:08;;;;;;;;;;;20.90;65.80;;;;;;4988713;28;19937;-76
2021/05/07 10:54:45;;;;;;;;;;;20.40;68.70;;;;;;4996297;28;19966;-73
2021/05/07 10:57:18;;;;;;;;;;;20.00;67.60;;;;;;4994375;28;19994;-75
2021/05/07 10:59:54;;;;;;;;;;;19.60;70.30;;;;;;4987782;28;20028;-73
2021/05/07 11:02:20;;;;;;;;;;;19.20;72.90;;;;;;4996852;28;19984;-81
2021/05/07 11:04:48;;;;;;;;;;;19.00;73.30;;;;;;4991181;28;19968;-78
2021/05/07 11:07:24;;;;;;;;;;;18.80;72.10;;;;;;4989917;28;19961;-76
2021/05/07 11:10:02;;;;;;;;;;;18.50;74.70;;;;;;4989206;28;20365;-80
2021/05/07 11:12:28;;;;;;;;;;;18.20;74.40;;;;;;4989927;28;19929;-77
2021/05/07 11:14:54;;;;;;;;;;;17.80;75.30;;;;;;4991347;28;19930;-74
2021/05/07 11:17:20;;;;;;;;;;;17.40;76.30;;;;;;4989661;28;20020;-75
2021/05/07 11:19:47;;;;;;;;;;;17.20;78.20;;;;;;4988469;28;20401;-74
2021/05/07 11:22:13;;;;;;;;;;;17.00;77.90;;;;;;4988429;28;19929;-73
2021/05/07 11:24:40;;;;;;;;;;;17.00;75.60;;;;;;4989282;28;20029;-76
2021/05/07 11:27:21;;;;;;;;;;;17.00;78.00;;;;;;4984717;28;19936;-74
2021/05/07 11:29:48;;;;;;;;;;;16.90;79.40;;;;;;4980053;28;20016;-70
2021/05/07 11:32:21;;;;;;;;;;;16.80;79.20;;;;;;4988790;28;20401;-71
2021/05/07 11:34:49;;;;;;;;;;;16.50;83.00;;;;;;4985752;28;19969;-71
2021/05/07 11:37:15;;;;;;;;;;;16.20;90.50;;;;;;4987637;28;20385;-73
2021/05/07 11:39:41;;;;;;;;;;;15.80;92.00;;;;;;4989324;28;19932;-73
2021/05/07 11:42:10;;;;;;;;;;;15.50;93.30;;;;;;4988217;28;19933;-73
2021/05/07 11:44:46;;;;;;;;;;;15.20;94.30;;;;;;4987987;28;20112;-73
2021/05/07 11:47:12;;;;;;;;;;;15.00;95.90;;;;;;4987760;28;20436;-70
2021/05/07 11:49:39;;;;;;;;;;;14.80;95.20;;;;;;4987821;28;19988;-66
2021/05/07 11:52:05;;;;;;;;;;;14.60;99.90;;;;;;4988349;28;19945;-67
2021/05/07 11:54:37;;;;;;;;;;;13.90;99.90;;;;;;4989301;28;20029;-66
2021/05/07 11:57:04;;;;;;;;;;;13.20;99.90;;;;;;4982932;28;20312;-66
2021/05/07 11:59:29;;;;;;;;;;;12.70;99.90;;;;;;4985363;28;20021;-65
2021/05/07 12:02:01;;;;;;;;;;;12.40;99.90;;;;;;4988977;28;20354;-64
2021/05/07 12:04:27;;;;;;;;;;;12.10;99.90;;;;;;4985179;28;20020;-65
2021/05/07 12:06:53;;;;;;;;;;;11.90;99.90;;;;;;4988959;28;20410;-65
2021/05/07 12:09:19;;;;;;;;;;;11.80;99.90;;;;;;4988709;28;20386;-65
2021/05/07 12:11:54;;;;;;;;;;;11.90;99.90;;;;;;4990363;28;20020;-66
2021/05/07 12:14:20;;;;;;;;;;;12.00;99.90;;;;;;4989019;28;20151;-66
2021/05/07 12:16:46;;;;;;;;;;;12.20;99.90;;;;;;4989249;28;20020;-65
2021/05/07 12:19:18;;;;;;;;;;;12.30;99.90;;;;;;4988541;28;20013;-64
2021/05/07 12:21:44;;;;;;;;;;;12.40;99.90;;;;;;4988186;28;19926;-69
2021/05/07 12:24:13;;;;;;;;;;;12.50;99.90;;;;;;4988444;28;19934;-69
2021/05/07 12:26:49;;;;;;;;;;;12.60;99.90;;;;;;4988784;28;19968;-67
2021/05/07 12:29:15;;;;;;;;;;;12.70;99.90;;;;;;4988445;28;20474;-66
2021/05/07 12:31:41;;;;;;;;;;;12.70;99.90;;;;;;4988552;28;19929;-67
2021/05/07 12:34:18;;;;;;;;;;;12.60;99.90;;;;;;4987947;28;20456;-68
2021/05/07 12:36:55;;;;;;;;;;;12.50;99.90;;;;;;4988419;28;19934;-67
2021/05/07 12:39:24;;;;;;;;;;;12.40;99.90;;;;;;4988704;28;20012;-67
2021/05/07 12:41:50;;;;;;;;;;;12.30;99.90;;;;;;4991554;28;20358;-68
2021/05/07 12:44:16;;;;;;;;;;;12.20;99.90;;;;;;4992403;28;20152;-68
2021/05/07 12:46:42;;;;;;;;;;;12.10;99.90;;;;;;4991971;28;20035;-66
2021/05/07 12:49:07;;;;;;;;;;;12.00;99.90;;;;;;4991263;28;20372;-65
2021/05/07 12:51:33;;;;;;;;;;;11.80;99.90;;;;;;4991223;28;20060;-65
2021/05/07 12:53:59;;;;;;;;;;;11.70;99.90;;;;;;4992083;28;19930;-66
2021/05/07 12:56:26;;;;;;;;;;;11.70;99.90;;;;;;5004784;28;20387;-66
2021/05/07 12:58:52;;;;;;;;;;;11.80;99.90;;;;;;4992197;28;20453;-64
2021/05/07 13:01:18;;;;;;;;;;;12.00;99.90;;;;;;4992114;28;20016;-69
2021/05/07 13:03:44;;;;;;;;;;;12.20;99.90;;;;;;4992663;28;19926;-67
2021/05/07 13:06:12;;;;;;;;;;;12.30;99.90;;;;;;4990803;28;20382;-70
2021/05/07 13:08:38;;;;;;;;;;;12.40;99.90;;;;;;4991957;28;19932;-70
2021/05/07 13:11:04;;;;;;;;;;;12.40;99.90;;;;;;4990607;28;20016;-70
2021/05/07 13:13:30;;;;;;;;;;;12.40;99.90;;;;;;4991433;28;20433;-68
2021/05/07 13:15:56;;;;;;;;;;;12.30;99.90;;;;;;4991623;28;19992;-66
2021/05/07 13:18:22;;;;;;;;;;;12.30;99.90;;;;;;4991899;28;19929;-66
2021/05/07 13:20:48;;;;;;;;;;;12.20;99.90;;;;;;4991769;28;20016;-71
2021/05/07 13:23:14;;;;;;;;;;;12.30;99.90;;;;;;4991622;28;20025;-70
2021/05/07 13:25:40;;;;;;;;;;;12.40;99.90;;;;;;4991628;28;20032;-63
2021/05/07 13:28:06;;;;;;;;;;;12.60;99.90;;;;;;4991580;28;20049;-63
2021/05/07 13:30:32;;;;;;;;;;;13.00;99.90;;;;;;4989858;28;20016;-65
2021/05/07 13:32:58;;;;;;;;;;;13.40;99.90;;;;;;4990038;28;20619;-64
2021/05/07 13:35:27;;;;;;;;;;;13.90;99.90;;;;;;4988541;28;20025;-66
2021/05/07 13:37:53;;;;;;;;;;;14.20;99.90;;;;;;4990611;28;20043;-67
2021/05/07 13:40:22;;;;;;;;;;;14.20;99.90;;;;;;4990326;28;19953;-66
2021/05/07 13:42:58;;;;;;;;;;;14.20;99.90;;;;;;4991468;28;20025;-67
2021/05/07 13:45:24;;;;;;;;;;;14.10;99.90;;;;;;4990596;28;19929;-66
2021/05/07 13:47:50;;;;;;;;;;;14.20;99.90;;;;;;4991249;28;20495;-68
2021/05/07 13:50:18;;;;;;;;;;;14.30;99.90;;;;;;4991201;28;19969;-69
2021/05/07 13:52:44;;;;;;;;;;;14.40;99.90;;;;;;4972455;28;19969;-66
2021/05/07 13:55:10;;;;;;;;;;;14.50;99.90;;;;;;4995715;28;20385;-69
2021/05/07 13:57:36;;;;;;;;;;;14.50;99.90;;;;;;5004094;28;20018;-70
2021/05/07 14:00:03;;;;;;;;;;;14.50;99.90;;;;;;4991350;28;19997;-70
2021/05/07 14:02:30;;;;;;;;;;;14.40;99.90;;;;;;4990759;28;20029;-70
2021/05/07 14:04:56;;;;;;;;;;;14.30;99.90;;;;;;4991038;28;20020;-69
2021/05/07 14:07:22;;;;;;;;;;;14.20;99.90;;;;;;4990846;28;19930;-65
2021/05/07 14:09:48;;;;;;;;;;;14.10;99.90;;;;;;4990921;28;19930;-65
2021/05/07 14:12:15;;;;;;;;;;;13.90;99.90;;;;;;4984746;28;20012;-67
2021/05/07 14:14:45;;;;;;;;;;;13.80;99.90;;;;;;4989723;28;20357;-65
2021/05/07 14:17:13;;;;;;;;;;;13.60;99.90;;;;;;4990853;28;20417;-69
2021/05/07 14:19:39;;;;;;;;;;;13.40;99.90;;;;;;4991311;28;19958;-73
2021/05/07 14:22:05;;;;;;;;;;;13.20;99.90;;;;;;4991031;28;20043;-72
2021/05/07 14:24:31;;;;;;;;;;;12.90;99.90;;;;;;4990838;28;20398;-72